OPDR Andalucia — ECKZ — position and weather

sailwx.info

Track history (hours):
 
Tides and Currents Weather Stations Pressure Air Temp Water Temp Dewpoint Dewpoint Depression Visibility Wind Speed Wind Dir Waves Ship Positions

OPDR Andalucia

Last reported at 2017-Nov-14 14:09 UTC. Time now 2017-Nov-19 08:53 UTC.
Position N 29°07' W 013°21'.

Length 145 m; draft 5.2 m.

Type: Ship (hazmat cat A). MMSI: 225302000.

Date/timePositionNaut miles runAvg speedWind from/ knotsBaromVisibWave heightAir tempDewpointWater temp
2017-Nov-14 14:09N 29°07' W 013°21'214.6
2017-Nov-14 14:00N 29°05' W 013°22'814.8
2017-Nov-14 13:29N 28°59' W 013°28'4 8.1
2017-Nov-14 13:00N 28°58' W 013°32'0 0.0
2017-Nov-14 12:30N 28°58' W 013°32'0 0.0
2017-Nov-14 11:40N 28°58' W 013°32'0 0.0
2017-Nov-14 10:46N 28°58' W 013°32'0 0.0
2017-Nov-14 09:49N 28°58' W 013°32'0 0.0
2017-Nov-14 09:25N 28°58' W 013°32'0 0.0
2017-Nov-14 08:25N 28°58' W 013°32'0 0.8
2017-Nov-14 08:00N 28°58' W 013°32'5 9.8
2017-Nov-14 07:30N 28°55' W 013°36'1116.2
2017-Nov-14 06:50N 28°49' W 013°47'515.7
2017-Nov-14 06:30N 28°48' W 013°52'714.6
2017-Nov-14 06:00N 28°46' W 014°01'3614.8
2017-Nov-14 03:34N 28°30' W 014°37'114.3
2017-Nov-14 03:29N 28°29' W 014°39'714.5
2017-Nov-14 03:00N 28°26' W 014°46'714.6
2017-Nov-14 02:30N 28°23' W 014°53'714.7
2017-Nov-14 02:00N 28°19' W 015°00'714.7
2017-Nov-14 01:31N 28°15' W 015°07'715.0
2017-Nov-14 01:01N 28°12' W 015°15'815.4
2017-Nov-14 00:31N 28°08' W 015°22'3 4.0
2017-Nov-13 23:52N 28°09' W 015°25'0 0.0
2017-Nov-13 23:26N 28°09' W 015°25'0 0.0
2017-Nov-13 22:51N 28°09' W 015°25'0 0.0
2017-Nov-13 22:21N 28°09' W 015°25'0 0.0
2017-Nov-13 21:55N 28°09' W 015°25'47 2.4
2017-Nov-13 01:50N 28°29' W 016°13'0 0.0
2017-Nov-13 01:19N 28°29' W 016°13'0 0.0
2017-Nov-13 00:56N 28°29' W 016°13'0 0.0
2017-Nov-13 00:26N 28°29' W 016°13'0 0.0
2017-Nov-12 23:55N 28°29' W 016°13'1 1.4
2017-Nov-12 23:22N 28°29' W 016°13'3315.0
2017-Nov-12 21:09N 28°50' W 015°44'315.2
2017-Nov-12 20:57N 28°52' W 015°41'715.3
2017-Nov-12 20:30N 28°57' W 015°36'715.3
2017-Nov-12 20:00N 29°03' W 015°30'1315.4
2017-Nov-12 19:08N 29°13' W 015°19'7715.1
2017-Nov-12 14:00N 30°08' W 014°18'815.0
2017-Nov-12 13:29N 30°14' W 014°12'1315.1
2017-Nov-12 12:37N 30°23' W 014°01'214.7
2017-Nov-12 12:30N 30°24' W 013°59'714.8
2017-Nov-12 12:00N 30°29' W 013°53'  
2017-Nov-08 18:53N 33°57' W 008°52'514.3
2017-Nov-08 18:30N 33°52' W 008°55'1214.5
2017-Nov-08 17:41N 33°43' W 009°03'314.6
2017-Nov-08 17:31N 33°40' W 009°05'31312.8
2017-Nov-07 17:02N 29°36' W 012°54'3713.2
2017-Nov-07 14:12N 29°07' W 013°21'313.8
2017-Nov-07 13:58N 29°04' W 013°23'613.9
2017-Nov-07 13:31N 28°59' W 013°27'4 4.0
2017-Nov-07 12:31N 28°58' W 013°32'0 0.0
2017-Nov-07 12:07N 28°58' W 013°32'0 0.0
2017-Nov-07 11:55N 28°58' W 013°32'0 0.0
2017-Nov-07 11:14N 28°58' W 013°32'0 0.0
2017-Nov-07 10:50N 28°58' W 013°32'0 0.0
2017-Nov-07 10:14N 28°58' W 013°32'0 0.0
2017-Nov-07 09:56N 28°58' W 013°32'0 0.0
2017-Nov-07 09:26N 28°58' W 013°32'0 0.1
2017-Nov-07 08:59N 28°58' W 013°32'2 3.9
2017-Nov-07 08:30N 28°56' W 013°33'815.9
2017-Nov-07 08:00N 28°52' W 013°41'815.9
2017-Nov-07 07:30N 28°49' W 013°49'4313.9
2017-Nov-07 04:26N 28°31' W 014°33'613.5
2017-Nov-07 04:00N 28°29' W 014°39'713.6
2017-Nov-07 03:30N 28°26' W 014°46'713.4
2017-Nov-07 03:00N 28°23' W 014°53'713.3
2017-Nov-07 02:30N 28°20' W 014°59'713.5
2017-Nov-07 02:00N 28°16' W 015°06'713.7
2017-Nov-07 01:31N 28°13' W 015°12'713.5
2017-Nov-07 01:00N 28°09' W 015°19'5 9.8
2017-Nov-07 00:30N 28°08' W 015°25'1 1.5
2017-Nov-07 00:00N 28°09' W 015°25'0 0.0
2017-Nov-06 23:30N 28°09' W 015°25'0 0.0
2017-Nov-06 22:53N 28°09' W 015°25'0 0.0
2017-Nov-06 22:25N 28°09' W 015°25'0 0.0
2017-Nov-06 21:59N 28°09' W 015°25'0 0.0
2017-Nov-06 21:24N 28°09' W 015°25'0 0.0
2017-Nov-06 20:54N 28°09' W 015°25'0 0.0
2017-Nov-06 20:30N 28°09' W 015°25'47 2.6
2017-Nov-06 02:20N 28°29' W 016°13'0 0.0
2017-Nov-06 01:53N 28°29' W 016°13'0 0.0
2017-Nov-05 22:57N 28°29' W 016°13'1 1.6
2017-Nov-05 22:30N 28°29' W 016°14'611.3
2017-Nov-05 22:00N 28°30' W 016°08'815.2
2017-Nov-05 21:30N 28°35' W 016°01'815.4
2017-Nov-05 20:59N 28°40' W 015°54'815.5
2017-Nov-05 20:29N 28°46' W 015°48'715.3
2017-Nov-05 20:00N 28°51' W 015°42'815.4
2017-Nov-05 19:30N 28°57' W 015°36'  
Track history (hours):
 
Tides and Currents Weather Stations Pressure Air Temp Water Temp Dewpoint Dewpoint Depression Visibility Wind Speed Wind Dir Waves Ship Positions

OPDR Andalucia

Last reported at 2017-Nov-14 14:09 UTC. Time now 2017-Nov-19 08:53 UTC.
Position N 29°07' W 013°21'.

Length 145 m; draft 5.2 m.

Type: Ship (hazmat cat A). MMSI: 225302000.

Date/timePositionNaut miles runAvg speedWind from/ knotsBaromVisibWave heightAir tempDewpointWater temp
2017-Nov-14 14:09N 29°07' W 013°21'214.6
2017-Nov-14 14:00N 29°05' W 013°22'814.8
2017-Nov-14 13:29N 28°59' W 013°28'4 8.1
2017-Nov-14 13:00N 28°58' W 013°32'0 0.0
2017-Nov-14 12:30N 28°58' W 013°32'0 0.0
2017-Nov-14 11:40N 28°58' W 013°32'0 0.0
2017-Nov-14 10:46N 28°58' W 013°32'0 0.0
2017-Nov-14 09:49N 28°58' W 013°32'0 0.0
2017-Nov-14 09:25N 28°58' W 013°32'0 0.0
2017-Nov-14 08:25N 28°58' W 013°32'0 0.8
2017-Nov-14 08:00N 28°58' W 013°32'5 9.8
2017-Nov-14 07:30N 28°55' W 013°36'1116.2
2017-Nov-14 06:50N 28°49' W 013°47'515.7
2017-Nov-14 06:30N 28°48' W 013°52'714.6
2017-Nov-14 06:00N 28°46' W 014°01'3614.8
2017-Nov-14 03:34N 28°30' W 014°37'114.3
2017-Nov-14 03:29N 28°29' W 014°39'714.5
2017-Nov-14 03:00N 28°26' W 014°46'714.6
2017-Nov-14 02:30N 28°23' W 014°53'714.7
2017-Nov-14 02:00N 28°19' W 015°00'714.7
2017-Nov-14 01:31N 28°15' W 015°07'715.0
2017-Nov-14 01:01N 28°12' W 015°15'815.4
2017-Nov-14 00:31N 28°08' W 015°22'3 4.0
2017-Nov-13 23:52N 28°09' W 015°25'0 0.0
2017-Nov-13 23:26N 28°09' W 015°25'0 0.0
2017-Nov-13 22:51N 28°09' W 015°25'0 0.0
2017-Nov-13 22:21N 28°09' W 015°25'0 0.0
2017-Nov-13 21:55N 28°09' W 015°25'47 2.4
2017-Nov-13 01:50N 28°29' W 016°13'0 0.0
2017-Nov-13 01:19N 28°29' W 016°13'0 0.0
2017-Nov-13 00:56N 28°29' W 016°13'0 0.0
2017-Nov-13 00:26N 28°29' W 016°13'0 0.0
2017-Nov-12 23:55N 28°29' W 016°13'1 1.4
2017-Nov-12 23:22N 28°29' W 016°13'3315.0
2017-Nov-12 21:09N 28°50' W 015°44'315.2
2017-Nov-12 20:57N 28°52' W 015°41'715.3
2017-Nov-12 20:30N 28°57' W 015°36'715.3
2017-Nov-12 20:00N 29°03' W 015°30'1315.4
2017-Nov-12 19:08N 29°13' W 015°19'7715.1
2017-Nov-12 14:00N 30°08' W 014°18'815.0
2017-Nov-12 13:29N 30°14' W 014°12'1315.1
2017-Nov-12 12:37N 30°23' W 014°01'214.7
2017-Nov-12 12:30N 30°24' W 013°59'714.8
2017-Nov-12 12:00N 30°29' W 013°53'  
2017-Nov-08 18:53N 33°57' W 008°52'514.3
2017-Nov-08 18:30N 33°52' W 008°55'1214.5
2017-Nov-08 17:41N 33°43' W 009°03'314.6
2017-Nov-08 17:31N 33°40' W 009°05'31312.8
2017-Nov-07 17:02N 29°36' W 012°54'3713.2
2017-Nov-07 14:12N 29°07' W 013°21'313.8
2017-Nov-07 13:58N 29°04' W 013°23'613.9
2017-Nov-07 13:31N 28°59' W 013°27'4 4.0
2017-Nov-07 12:31N 28°58' W 013°32'0 0.0
2017-Nov-07 12:07N 28°58' W 013°32'0 0.0
2017-Nov-07 11:55N 28°58' W 013°32'0 0.0
2017-Nov-07 11:14N 28°58' W 013°32'0 0.0
2017-Nov-07 10:50N 28°58' W 013°32'0 0.0
2017-Nov-07 10:14N 28°58' W 013°32'0 0.0
2017-Nov-07 09:56N 28°58' W 013°32'0 0.0
2017-Nov-07 09:26N 28°58' W 013°32'0 0.1
2017-Nov-07 08:59N 28°58' W 013°32'2 3.9
2017-Nov-07 08:30N 28°56' W 013°33'815.9
2017-Nov-07 08:00N 28°52' W 013°41'815.9
2017-Nov-07 07:30N 28°49' W 013°49'4313.9
2017-Nov-07 04:26N 28°31' W 014°33'613.5
2017-Nov-07 04:00N 28°29' W 014°39'713.6
2017-Nov-07 03:30N 28°26' W 014°46'713.4
2017-Nov-07 03:00N 28°23' W 014°53'713.3
2017-Nov-07 02:30N 28°20' W 014°59'713.5
2017-Nov-07 02:00N 28°16' W 015°06'713.7
2017-Nov-07 01:31N 28°13' W 015°12'713.5
2017-Nov-07 01:00N 28°09' W 015°19'5 9.8
2017-Nov-07 00:30N 28°08' W 015°25'1 1.5
2017-Nov-07 00:00N 28°09' W 015°25'0 0.0
2017-Nov-06 23:30N 28°09' W 015°25'0 0.0
2017-Nov-06 22:53N 28°09' W 015°25'0 0.0
2017-Nov-06 22:25N 28°09' W 015°25'0 0.0
2017-Nov-06 21:59N 28°09' W 015°25'0 0.0
2017-Nov-06 21:24N 28°09' W 015°25'0 0.0
2017-Nov-06 20:54N 28°09' W 015°25'0 0.0
2017-Nov-06 20:30N 28°09' W 015°25'47 2.6
2017-Nov-06 02:20N 28°29' W 016°13'0 0.0
2017-Nov-06 01:53N 28°29' W 016°13'0 0.0
2017-Nov-05 22:57N 28°29' W 016°13'1 1.6
2017-Nov-05 22:30N 28°29' W 016°14'611.3
2017-Nov-05 22:00N 28°30' W 016°08'815.2
2017-Nov-05 21:30N 28°35' W 016°01'815.4
2017-Nov-05 20:59N 28°40' W 015°54'815.5
2017-Nov-05 20:29N 28°46' W 015°48'715.3
2017-Nov-05 20:00N 28°51' W 015°42'815.4
2017-Nov-05 19:30N 28°57' W 015°36'  

Dump ship's entire track history